sensor_id;sensor_type;location;lat;lon;timestamp;P1;durP1;ratioP1;P2;durP2;ratioP2
21030;SDS011;61072;47.808;7.636;2023-12-14T00:02:11;1.38;;;1.00;;
21030;SDS011;61072;47.808;7.636;2023-12-14T00:04:38;1.58;;;1.30;;
21030;SDS011;61072;47.808;7.636;2023-12-14T00:07:07;4.38;;;1.20;;
21030;SDS011;61072;47.808;7.636;2023-12-14T00:09:34;3.00;;;1.40;;
21030;SDS011;61072;47.808;7.636;2023-12-14T00:12:00;4.53;;;1.30;;
21030;SDS011;61072;47.808;7.636;2023-12-14T00:14:27;2.38;;;1.10;;
21030;SDS011;61072;47.808;7.636;2023-12-14T00:16:54;4.47;;;1.20;;
21030;SDS011;61072;47.808;7.636;2023-12-14T00:19:23;2.38;;;1.42;;
21030;SDS011;61072;47.808;7.636;2023-12-14T00:21:50;1.27;;;1.17;;
21030;SDS011;61072;47.808;7.636;2023-12-14T00:24:16;2.72;;;1.27;;
21030;SDS011;61072;47.808;7.636;2023-12-14T00:26:43;1.48;;;1.20;;
21030;SDS011;61072;47.808;7.636;2023-12-14T00:29:10;3.33;;;1.13;;
21030;SDS011;61072;47.808;7.636;2023-12-14T00:31:37;4.78;;;1.15;;
21030;SDS011;61072;47.808;7.636;2023-12-14T00:34:03;2.10;;;1.08;;
21030;SDS011;61072;47.808;7.636;2023-12-14T00:36:30;3.47;;;1.50;;
21030;SDS011;61072;47.808;7.636;2023-12-14T00:38:57;4.72;;;1.58;;
21030;SDS011;61072;47.808;7.636;2023-12-14T00:41:24;3.67;;;1.75;;
21030;SDS011;61072;47.808;7.636;2023-12-14T00:43:50;3.13;;;1.42;;
21030;SDS011;61072;47.808;7.636;2023-12-14T00:46:17;1.80;;;1.10;;
21030;SDS011;61072;47.808;7.636;2023-12-14T00:48:44;2.95;;;1.40;;
21030;SDS011;61072;47.808;7.636;2023-12-14T00:51:11;3.55;;;1.40;;
21030;SDS011;61072;47.808;7.636;2023-12-14T00:53:37;1.90;;;1.27;;
21030;SDS011;61072;47.808;7.636;2023-12-14T00:56:06;1.17;;;1.08;;
21030;SDS011;61072;47.808;7.636;2023-12-14T00:58:34;2.58;;;1.40;;
21030;SDS011;61072;47.808;7.636;2023-12-14T01:01:01;3.13;;;1.20;;
21030;SDS011;61072;47.808;7.636;2023-12-14T01:03:27;3.47;;;1.40;;
21030;SDS011;61072;47.808;7.636;2023-12-14T01:05:54;2.65;;;1.35;;
21030;SDS011;61072;47.808;7.636;2023-12-14T01:08:21;2.22;;;1.38;;
21030;SDS011;61072;47.808;7.636;2023-12-14T01:10:48;3.78;;;1.40;;
21030;SDS011;61072;47.808;7.636;2023-12-14T01:13:15;3.05;;;1.48;;
21030;SDS011;61072;47.808;7.636;2023-12-14T01:15:41;2.47;;;1.50;;
21030;SDS011;61072;47.808;7.636;2023-12-14T01:18:08;1.80;;;1.52;;
21030;SDS011;61072;47.808;7.636;2023-12-14T01:20:35;1.45;;;1.20;;
21030;SDS011;61072;47.808;7.636;2023-12-14T01:23:02;3.35;;;1.33;;
21030;SDS011;61072;47.808;7.636;2023-12-14T01:25:29;2.17;;;1.35;;
21030;SDS011;61072;47.808;7.636;2023-12-14T01:27:55;2.17;;;1.50;;
21030;SDS011;61072;47.808;7.636;2023-12-14T01:30:22;1.38;;;1.27;;
21030;SDS011;61072;47.808;7.636;2023-12-14T01:32:49;3.08;;;1.30;;
21030;SDS011;61072;47.808;7.636;2023-12-14T01:35:16;2.63;;;1.75;;
21030;SDS011;61072;47.808;7.636;2023-12-14T01:37:43;2.85;;;1.40;;
21030;SDS011;61072;47.808;7.636;2023-12-14T01:40:10;2.35;;;1.52;;
21030;SDS011;61072;47.808;7.636;2023-12-14T01:42:37;2.45;;;1.35;;
21030;SDS011;61072;47.808;7.636;2023-12-14T01:45:04;2.42;;;1.50;;
21030;SDS011;61072;47.808;7.636;2023-12-14T01:47:31;2.58;;;1.90;;
21030;SDS011;61072;47.808;7.636;2023-12-14T01:49:58;2.13;;;1.42;;
21030;SDS011;61072;47.808;7.636;2023-12-14T01:52:25;2.15;;;1.50;;
21030;SDS011;61072;47.808;7.636;2023-12-14T01:54:52;7.68;;;1.70;;
21030;SDS011;61072;47.808;7.636;2023-12-14T01:57:18;2.38;;;1.40;;
21030;SDS011;61072;47.808;7.636;2023-12-14T01:59:45;3.60;;;1.63;;
21030;SDS011;61072;47.808;7.636;2023-12-14T02:02:12;2.80;;;1.85;;
21030;SDS011;61072;47.808;7.636;2023-12-14T02:04:39;2.08;;;1.20;;
21030;SDS011;61072;47.808;7.636;2023-12-14T02:07:05;3.13;;;1.52;;
21030;SDS011;61072;47.808;7.636;2023-12-14T02:09:32;3.78;;;2.03;;
21030;SDS011;61072;47.808;7.636;2023-12-14T02:11:59;4.20;;;1.60;;
21030;SDS011;61072;47.808;7.636;2023-12-14T02:14:26;5.72;;;2.85;;
21030;SDS011;61072;47.808;7.636;2023-12-14T02:16:53;2.95;;;1.77;;
21030;SDS011;61072;47.808;7.636;2023-12-14T02:19:19;3.38;;;1.60;;
21030;SDS011;61072;47.808;7.636;2023-12-14T02:21:46;5.20;;;1.50;;
21030;SDS011;61072;47.808;7.636;2023-12-14T02:24:13;4.57;;;1.90;;
21030;SDS011;61072;47.808;7.636;2023-12-14T02:26:40;3.70;;;1.65;;
21030;SDS011;61072;47.808;7.636;2023-12-14T02:29:06;2.38;;;1.70;;
21030;SDS011;61072;47.808;7.636;2023-12-14T02:31:33;2.22;;;1.50;;
21030;SDS011;61072;47.808;7.636;2023-12-14T02:34:00;1.83;;;1.60;;
21030;SDS011;61072;47.808;7.636;2023-12-14T02:36:26;5.20;;;1.75;;
21030;SDS011;61072;47.808;7.636;2023-12-14T02:38:53;2.17;;;1.52;;
21030;SDS011;61072;47.808;7.636;2023-12-14T02:41:20;1.85;;;1.63;;
21030;SDS011;61072;47.808;7.636;2023-12-14T02:43:47;3.25;;;2.08;;
21030;SDS011;61072;47.808;7.636;2023-12-14T02:46:14;4.20;;;1.77;;
21030;SDS011;61072;47.808;7.636;2023-12-14T02:48:41;2.45;;;1.85;;
21030;SDS011;61072;47.808;7.636;2023-12-14T02:51:13;4.57;;;1.88;;
21030;SDS011;61072;47.808;7.636;2023-12-14T02:53:43;1.92;;;1.40;;
21030;SDS011;61072;47.808;7.636;2023-12-14T02:56:10;3.38;;;1.60;;
21030;SDS011;61072;47.808;7.636;2023-12-14T02:58:37;2.53;;;1.77;;
21030;SDS011;61072;47.808;7.636;2023-12-14T03:01:04;4.15;;;1.95;;
21030;SDS011;61072;47.808;7.636;2023-12-14T03:03:31;2.58;;;1.80;;
21030;SDS011;61072;47.808;7.636;2023-12-14T03:05:58;2.95;;;1.60;;
21030;SDS011;61072;47.808;7.636;2023-12-14T03:08:25;2.33;;;1.48;;
21030;SDS011;61072;47.808;7.636;2023-12-14T03:10:52;3.22;;;1.80;;
21030;SDS011;61072;47.808;7.636;2023-12-14T03:13:18;5.47;;;2.10;;
21030;SDS011;61072;47.808;7.636;2023-12-14T03:15:45;3.25;;;1.67;;
21030;SDS011;61072;47.808;7.636;2023-12-14T03:18:12;1.83;;;1.60;;
21030;SDS011;61072;47.808;7.636;2023-12-14T03:20:39;3.50;;;1.70;;
21030;SDS011;61072;47.808;7.636;2023-12-14T03:23:06;2.95;;;2.30;;
21030;SDS011;61072;47.808;7.636;2023-12-14T03:25:33;1.88;;;1.67;;
21030;SDS011;61072;47.808;7.636;2023-12-14T03:27:59;3.75;;;1.73;;
21030;SDS011;61072;47.808;7.636;2023-12-14T03:30:26;3.08;;;1.85;;
21030;SDS011;61072;47.808;7.636;2023-12-14T03:32:53;2.78;;;1.67;;
21030;SDS011;61072;47.808;7.636;2023-12-14T03:35:20;4.07;;;1.67;;
21030;SDS011;61072;47.808;7.636;2023-12-14T03:37:46;2.10;;;1.42;;
21030;SDS011;61072;47.808;7.636;2023-12-14T03:40:13;3.88;;;1.55;;
21030;SDS011;61072;47.808;7.636;2023-12-14T03:42:40;2.10;;;1.60;;
21030;SDS011;61072;47.808;7.636;2023-12-14T03:45:07;2.53;;;1.63;;
21030;SDS011;61072;47.808;7.636;2023-12-14T03:47:34;2.28;;;1.60;;
21030;SDS011;61072;47.808;7.636;2023-12-14T03:50:01;2.28;;;1.55;;
21030;SDS011;61072;47.808;7.636;2023-12-14T03:52:28;3.50;;;1.73;;
21030;SDS011;61072;47.808;7.636;2023-12-14T03:54:57;1.73;;;1.52;;
21030;SDS011;61072;47.808;7.636;2023-12-14T03:57:24;2.53;;;1.70;;
21030;SDS011;61072;47.808;7.636;2023-12-14T03:59:51;2.50;;;1.58;;
21030;SDS011;61072;47.808;7.636;2023-12-14T04:02:17;3.30;;;1.50;;
21030;SDS011;61072;47.808;7.636;2023-12-14T04:04:44;2.72;;;1.58;;
21030;SDS011;61072;47.808;7.636;2023-12-14T04:07:13;2.42;;;1.77;;
21030;SDS011;61072;47.808;7.636;2023-12-14T04:09:40;2.92;;;1.65;;
21030;SDS011;61072;47.808;7.636;2023-12-14T04:12:06;2.55;;;1.80;;
21030;SDS011;61072;47.808;7.636;2023-12-14T04:14:33;5.22;;;2.05;;
21030;SDS011;61072;47.808;7.636;2023-12-14T04:17:00;2.75;;;1.95;;
21030;SDS011;61072;47.808;7.636;2023-12-14T04:19:27;2.97;;;1.83;;
21030;SDS011;61072;47.808;7.636;2023-12-14T04:21:53;4.32;;;2.13;;
21030;SDS011;61072;47.808;7.636;2023-12-14T04:24:20;3.55;;;2.08;;
21030;SDS011;61072;47.808;7.636;2023-12-14T04:26:48;2.72;;;2.15;;
21030;SDS011;61072;47.808;7.636;2023-12-14T04:29:15;2.95;;;1.98;;
21030;SDS011;61072;47.808;7.636;2023-12-14T04:31:41;2.05;;;1.85;;
21030;SDS011;61072;47.808;7.636;2023-12-14T04:34:08;3.47;;;1.90;;
21030;SDS011;61072;47.808;7.636;2023-12-14T04:36:39;2.05;;;1.73;;
21030;SDS011;61072;47.808;7.636;2023-12-14T04:39:06;4.15;;;2.38;;
21030;SDS011;61072;47.808;7.636;2023-12-14T04:41:33;3.53;;;1.80;;
21030;SDS011;61072;47.808;7.636;2023-12-14T04:44:00;3.65;;;2.55;;
21030;SDS011;61072;47.808;7.636;2023-12-14T04:46:27;3.20;;;2.28;;
21030;SDS011;61072;47.808;7.636;2023-12-14T04:48:54;4.07;;;2.30;;
21030;SDS011;61072;47.808;7.636;2023-12-14T04:51:21;5.15;;;2.00;;
21030;SDS011;61072;47.808;7.636;2023-12-14T04:53:48;6.50;;;2.28;;
21030;SDS011;61072;47.808;7.636;2023-12-14T04:56:15;4.75;;;2.20;;
21030;SDS011;61072;47.808;7.636;2023-12-14T04:58:42;4.57;;;2.20;;
21030;SDS011;61072;47.808;7.636;2023-12-14T05:01:08;2.95;;;2.58;;
21030;SDS011;61072;47.808;7.636;2023-12-14T05:03:35;3.85;;;2.40;;
21030;SDS011;61072;47.808;7.636;2023-12-14T05:06:02;3.63;;;2.60;;
21030;SDS011;61072;47.808;7.636;2023-12-14T05:08:29;5.18;;;2.92;;
21030;SDS011;61072;47.808;7.636;2023-12-14T05:10:56;5.90;;;2.90;;
21030;SDS011;61072;47.808;7.636;2023-12-14T05:13:23;6.43;;;2.08;;
21030;SDS011;61072;47.808;7.636;2023-12-14T05:15:50;3.67;;;2.42;;
21030;SDS011;61072;47.808;7.636;2023-12-14T05:18:18;3.47;;;2.50;;
21030;SDS011;61072;47.808;7.636;2023-12-14T05:20:45;3.53;;;2.10;;
21030;SDS011;61072;47.808;7.636;2023-12-14T05:23:12;6.45;;;2.75;;
21030;SDS011;61072;47.808;7.636;2023-12-14T05:25:38;4.05;;;3.17;;
21030;SDS011;61072;47.808;7.636;2023-12-14T05:28:05;5.57;;;2.67;;
21030;SDS011;61072;47.808;7.636;2023-12-14T05:30:32;6.13;;;2.88;;
21030;SDS011;61072;47.808;7.636;2023-12-14T05:32:59;6.03;;;2.78;;
21030;SDS011;61072;47.808;7.636;2023-12-14T05:35:26;3.70;;;2.47;;
21030;SDS011;61072;47.808;7.636;2023-12-14T05:37:52;3.13;;;2.28;;
21030;SDS011;61072;47.808;7.636;2023-12-14T05:40:19;4.18;;;2.50;;
21030;SDS011;61072;47.808;7.636;2023-12-14T05:42:46;3.35;;;2.20;;
21030;SDS011;61072;47.808;7.636;2023-12-14T05:45:12;3.00;;;1.50;;
21030;SDS011;61072;47.808;7.636;2023-12-14T05:47:39;2.33;;;1.80;;
21030;SDS011;61072;47.808;7.636;2023-12-14T05:50:08;2.85;;;2.00;;
21030;SDS011;61072;47.808;7.636;2023-12-14T05:52:36;3.35;;;2.08;;
21030;SDS011;61072;47.808;7.636;2023-12-14T05:55:04;4.72;;;2.20;;
21030;SDS011;61072;47.808;7.636;2023-12-14T05:57:33;5.57;;;2.35;;
21030;SDS011;61072;47.808;7.636;2023-12-14T06:00:00;3.20;;;2.00;;
21030;SDS011;61072;47.808;7.636;2023-12-14T06:02:26;4.47;;;2.40;;
21030;SDS011;61072;47.808;7.636;2023-12-14T06:04:53;2.80;;;2.08;;
21030;SDS011;61072;47.808;7.636;2023-12-14T06:07:20;2.28;;;1.95;;
21030;SDS011;61072;47.808;7.636;2023-12-14T06:09:47;1.92;;;1.70;;
21030;SDS011;61072;47.808;7.636;2023-12-14T06:12:13;3.47;;;2.28;;
21030;SDS011;61072;47.808;7.636;2023-12-14T06:14:40;6.18;;;2.45;;
21030;SDS011;61072;47.808;7.636;2023-12-14T06:17:07;2.72;;;2.00;;
21030;SDS011;61072;47.808;7.636;2023-12-14T06:19:34;5.15;;;2.03;;
21030;SDS011;61072;47.808;7.636;2023-12-14T06:22:00;2.92;;;1.60;;
21030;SDS011;61072;47.808;7.636;2023-12-14T06:24:27;2.88;;;1.60;;
21030;SDS011;61072;47.808;7.636;2023-12-14T06:26:54;4.00;;;1.88;;
21030;SDS011;61072;47.808;7.636;2023-12-14T06:29:21;4.28;;;1.92;;
21030;SDS011;61072;47.808;7.636;2023-12-14T06:31:47;1.65;;;1.50;;
21030;SDS011;61072;47.808;7.636;2023-12-14T06:34:14;2.75;;;1.60;;
21030;SDS011;61072;47.808;7.636;2023-12-14T06:36:41;2.13;;;1.65;;
21030;SDS011;61072;47.808;7.636;2023-12-14T06:39:09;2.25;;;1.45;;
21030;SDS011;61072;47.808;7.636;2023-12-14T06:41:36;3.83;;;1.90;;
21030;SDS011;61072;47.808;7.636;2023-12-14T06:44:03;4.72;;;2.00;;
21030;SDS011;61072;47.808;7.636;2023-12-14T06:46:30;3.33;;;1.70;;
21030;SDS011;61072;47.808;7.636;2023-12-14T06:48:57;3.38;;;1.42;;
21030;SDS011;61072;47.808;7.636;2023-12-14T06:51:24;1.95;;;1.55;;
21030;SDS011;61072;47.808;7.636;2023-12-14T06:53:51;2.40;;;1.73;;
21030;SDS011;61072;47.808;7.636;2023-12-14T06:56:17;3.22;;;1.60;;
21030;SDS011;61072;47.808;7.636;2023-12-14T06:58:44;3.47;;;2.72;;
21030;SDS011;61072;47.808;7.636;2023-12-14T07:01:15;4.28;;;1.30;;
21030;SDS011;61072;47.808;7.636;2023-12-14T07:03:44;2.60;;;1.75;;
21030;SDS011;61072;47.808;7.636;2023-12-14T07:06:12;2.35;;;1.80;;
21030;SDS011;61072;47.808;7.636;2023-12-14T07:08:40;2.78;;;1.88;;
21030;SDS011;61072;47.808;7.636;2023-12-14T07:11:08;5.28;;;1.63;;
21030;SDS011;61072;47.808;7.636;2023-12-14T07:13:35;4.07;;;2.13;;
21030;SDS011;61072;47.808;7.636;2023-12-14T07:16:08;3.55;;;1.90;;
21030;SDS011;61072;47.808;7.636;2023-12-14T07:18:36;2.58;;;1.95;;
21030;SDS011;61072;47.808;7.636;2023-12-14T07:21:04;3.58;;;1.90;;
21030;SDS011;61072;47.808;7.636;2023-12-14T07:23:32;3.35;;;2.10;;
21030;SDS011;61072;47.808;7.636;2023-12-14T07:25:59;3.47;;;2.03;;
21030;SDS011;61072;47.808;7.636;2023-12-14T07:30:56;3.38;;;2.38;;
21030;SDS011;61072;47.808;7.636;2023-12-14T07:33:23;8.88;;;3.00;;
21030;SDS011;61072;47.808;7.636;2023-12-14T07:35:50;5.85;;;3.15;;
21030;SDS011;61072;47.808;7.636;2023-12-14T07:38:17;6.00;;;3.10;;
21030;SDS011;61072;47.808;7.636;2023-12-14T07:40:44;7.28;;;3.30;;
21030;SDS011;61072;47.808;7.636;2023-12-14T07:43:11;6.43;;;4.43;;
21030;SDS011;61072;47.808;7.636;2023-12-14T07:45:38;4.05;;;3.38;;
21030;SDS011;61072;47.808;7.636;2023-12-14T07:48:04;5.80;;;3.85;;
21030;SDS011;61072;47.808;7.636;2023-12-14T07:50:31;6.65;;;3.47;;
21030;SDS011;61072;47.808;7.636;2023-12-14T07:52:58;9.70;;;3.83;;
21030;SDS011;61072;47.808;7.636;2023-12-14T07:55:25;6.90;;;3.15;;
21030;SDS011;61072;47.808;7.636;2023-12-14T07:57:52;5.28;;;3.40;;
21030;SDS011;61072;47.808;7.636;2023-12-14T08:00:19;6.95;;;3.65;;
21030;SDS011;61072;47.808;7.636;2023-12-14T08:02:45;6.85;;;4.30;;
21030;SDS011;61072;47.808;7.636;2023-12-14T08:05:12;4.57;;;3.80;;
21030;SDS011;61072;47.808;7.636;2023-12-14T08:07:39;7.43;;;3.78;;
21030;SDS011;61072;47.808;7.636;2023-12-14T08:10:06;5.28;;;3.80;;
21030;SDS011;61072;47.808;7.636;2023-12-14T08:12:33;7.18;;;3.83;;
21030;SDS011;61072;47.808;7.636;2023-12-14T08:15:00;8.23;;;5.05;;
21030;SDS011;61072;47.808;7.636;2023-12-14T08:17:27;8.63;;;4.85;;
21030;SDS011;61072;47.808;7.636;2023-12-14T08:19:54;7.20;;;4.57;;
21030;SDS011;61072;47.808;7.636;2023-12-14T08:22:21;7.07;;;4.32;;
21030;SDS011;61072;47.808;7.636;2023-12-14T08:24:48;5.65;;;4.13;;
21030;SDS011;61072;47.808;7.636;2023-12-14T08:27:15;5.60;;;4.22;;
21030;SDS011;61072;47.808;7.636;2023-12-14T08:29:43;6.13;;;3.78;;
21030;SDS011;61072;47.808;7.636;2023-12-14T08:32:11;6.00;;;4.20;;
21030;SDS011;61072;47.808;7.636;2023-12-14T08:34:39;5.55;;;3.90;;
21030;SDS011;61072;47.808;7.636;2023-12-14T08:37:07;4.80;;;3.95;;
21030;SDS011;61072;47.808;7.636;2023-12-14T08:39:34;5.25;;;3.83;;
21030;SDS011;61072;47.808;7.636;2023-12-14T08:42:00;6.65;;;3.75;;
21030;SDS011;61072;47.808;7.636;2023-12-14T08:44:27;4.90;;;3.42;;
21030;SDS011;61072;47.808;7.636;2023-12-14T08:46:54;6.15;;;3.70;;
21030;SDS011;61072;47.808;7.636;2023-12-14T08:49:21;6.18;;;3.83;;
21030;SDS011;61072;47.808;7.636;2023-12-14T08:51:49;7.65;;;3.85;;
21030;SDS011;61072;47.808;7.636;2023-12-14T08:54:16;7.20;;;4.40;;
21030;SDS011;61072;47.808;7.636;2023-12-14T08:56:43;7.55;;;4.13;;
21030;SDS011;61072;47.808;7.636;2023-12-14T08:59:10;6.65;;;3.00;;
21030;SDS011;61072;47.808;7.636;2023-12-14T09:01:37;11.15;;;4.43;;
21030;SDS011;61072;47.808;7.636;2023-12-14T09:04:04;4.40;;;3.45;;
21030;SDS011;61072;47.808;7.636;2023-12-14T09:06:30;6.90;;;4.15;;
21030;SDS011;61072;47.808;7.636;2023-12-14T09:08:57;5.00;;;3.00;;
21030;SDS011;61072;47.808;7.636;2023-12-14T09:11:24;4.68;;;2.85;;
21030;SDS011;61072;47.808;7.636;2023-12-14T09:13:51;5.43;;;3.28;;
21030;SDS011;61072;47.808;7.636;2023-12-14T09:16:17;4.45;;;2.95;;
21030;SDS011;61072;47.808;7.636;2023-12-14T09:18:44;3.90;;;3.15;;
21030;SDS011;61072;47.808;7.636;2023-12-14T09:21:11;4.18;;;2.80;;
21030;SDS011;61072;47.808;7.636;2023-12-14T09:23:38;4.25;;;3.10;;
21030;SDS011;61072;47.808;7.636;2023-12-14T09:26:07;5.18;;;3.00;;
21030;SDS011;61072;47.808;7.636;2023-12-14T09:28:33;6.05;;;3.33;;
21030;SDS011;61072;47.808;7.636;2023-12-14T09:31:00;5.07;;;2.83;;
21030;SDS011;61072;47.808;7.636;2023-12-14T09:33:29;9.75;;;2.90;;
21030;SDS011;61072;47.808;7.636;2023-12-14T09:35:56;4.38;;;2.78;;
21030;SDS011;61072;47.808;7.636;2023-12-14T09:38:23;7.32;;;2.40;;
21030;SDS011;61072;47.808;7.636;2023-12-14T09:40:50;5.50;;;3.05;;
21030;SDS011;61072;47.808;7.636;2023-12-14T09:43:16;3.45;;;2.38;;
21030;SDS011;61072;47.808;7.636;2023-12-14T09:45:43;5.50;;;2.65;;
21030;SDS011;61072;47.808;7.636;2023-12-14T09:48:12;3.25;;;2.67;;
21030;SDS011;61072;47.808;7.636;2023-12-14T09:50:41;3.65;;;2.58;;
21030;SDS011;61072;47.808;7.636;2023-12-14T09:53:08;3.65;;;2.40;;
21030;SDS011;61072;47.808;7.636;2023-12-14T09:55:35;4.68;;;2.78;;
21030;SDS011;61072;47.808;7.636;2023-12-14T09:58:02;4.32;;;2.22;;
21030;SDS011;61072;47.808;7.636;2023-12-14T10:00:33;3.35;;;2.58;;
21030;SDS011;61072;47.808;7.636;2023-12-14T10:03:23;3.15;;;2.20;;
21030;SDS011;61072;47.808;7.636;2023-12-14T10:05:50;4.57;;;2.80;;
21030;SDS011;61072;47.808;7.636;2023-12-14T10:08:17;4.13;;;1.95;;
21030;SDS011;61072;47.808;7.636;2023-12-14T10:10:45;2.95;;;2.35;;
21030;SDS011;61072;47.808;7.636;2023-12-14T10:13:15;5.68;;;2.17;;
21030;SDS011;61072;47.808;7.636;2023-12-14T10:15:43;4.47;;;2.28;;
21030;SDS011;61072;47.808;7.636;2023-12-14T10:18:10;2.15;;;1.85;;
21030;SDS011;61072;47.808;7.636;2023-12-14T10:20:37;2.85;;;2.10;;
21030;SDS011;61072;47.808;7.636;2023-12-14T10:23:05;2.92;;;2.05;;
21030;SDS011;61072;47.808;7.636;2023-12-14T10:25:33;2.88;;;2.00;;
21030;SDS011;61072;47.808;7.636;2023-12-14T10:28:02;4.85;;;3.00;;
21030;SDS011;61072;47.808;7.636;2023-12-14T10:30:29;4.07;;;2.80;;
21030;SDS011;61072;47.808;7.636;2023-12-14T10:35:26;2.65;;;2.15;;
21030;SDS011;61072;47.808;7.636;2023-12-14T10:37:53;3.15;;;1.90;;
21030;SDS011;61072;47.808;7.636;2023-12-14T10:40:24;2.55;;;2.10;;
21030;SDS011;61072;47.808;7.636;2023-12-14T10:42:52;4.68;;;2.53;;
21030;SDS011;61072;47.808;7.636;2023-12-14T10:45:20;3.10;;;2.15;;
21030;SDS011;61072;47.808;7.636;2023-12-14T10:47:51;3.58;;;2.33;;
21030;SDS011;61072;47.808;7.636;2023-12-14T10:50:20;2.42;;;1.98;;
21030;SDS011;61072;47.808;7.636;2023-12-14T10:52:47;2.20;;;1.80;;
21030;SDS011;61072;47.808;7.636;2023-12-14T10:55:17;3.30;;;2.10;;
21030;SDS011;61072;47.808;7.636;2023-12-14T10:58:07;2.45;;;2.15;;
21030;SDS011;61072;47.808;7.636;2023-12-14T11:00:35;2.47;;;2.25;;
21030;SDS011;61072;47.808;7.636;2023-12-14T11:03:05;2.10;;;1.58;;
21030;SDS011;61072;47.808;7.636;2023-12-14T11:05:33;2.25;;;2.00;;
21030;SDS011;61072;47.808;7.636;2023-12-14T11:10:37;3.97;;;2.10;;
21030;SDS011;61072;47.808;7.636;2023-12-14T11:13:28;3.13;;;2.17;;
21030;SDS011;61072;47.808;7.636;2023-12-14T11:15:58;4.18;;;2.25;;
21030;SDS011;61072;47.808;7.636;2023-12-14T11:18:27;5.10;;;1.80;;
21030;SDS011;61072;47.808;7.636;2023-12-14T11:20:55;3.65;;;2.50;;
21030;SDS011;61072;47.808;7.636;2023-12-14T11:25:52;3.63;;;2.70;;
21030;SDS011;61072;47.808;7.636;2023-12-14T11:28:24;4.78;;;2.67;;
21030;SDS011;61072;47.808;7.636;2023-12-14T11:30:56;3.53;;;2.15;;
21030;SDS011;61072;47.808;7.636;2023-12-14T11:33:23;23.35;;;12.15;;
21030;SDS011;61072;47.808;7.636;2023-12-14T11:35:51;17.48;;;9.43;;
21030;SDS011;61072;47.808;7.636;2023-12-14T11:38:21;4.75;;;2.80;;
21030;SDS011;61072;47.808;7.636;2023-12-14T11:40:50;2.97;;;2.20;;
21030;SDS011;61072;47.808;7.636;2023-12-14T11:43:17;3.25;;;2.45;;
21030;SDS011;61072;47.808;7.636;2023-12-14T11:45:47;2.63;;;2.28;;
21030;SDS011;61072;47.808;7.636;2023-12-14T11:48:14;5.13;;;2.78;;
21030;SDS011;61072;47.808;7.636;2023-12-14T11:50:42;2.97;;;2.03;;
21030;SDS011;61072;47.808;7.636;2023-12-14T11:53:10;2.55;;;2.20;;
21030;SDS011;61072;47.808;7.636;2023-12-14T11:55:39;5.28;;;2.80;;
21030;SDS011;61072;47.808;7.636;2023-12-14T11:58:08;4.67;;;2.60;;
21030;SDS011;61072;47.808;7.636;2023-12-14T12:00:37;4.22;;;2.70;;
21030;SDS011;61072;47.808;7.636;2023-12-14T12:03:07;3.30;;;2.33;;
21030;SDS011;61072;47.808;7.636;2023-12-14T12:05:38;2.50;;;2.05;;
21030;SDS011;61072;47.808;7.636;2023-12-14T12:08:15;6.80;;;3.13;;
21030;SDS011;61072;47.808;7.636;2023-12-14T12:10:42;4.93;;;2.88;;
21030;SDS011;61072;47.808;7.636;2023-12-14T12:15:40;6.85;;;2.90;;
21030;SDS011;61072;47.808;7.636;2023-12-14T12:18:08;6.88;;;3.55;;
21030;SDS011;61072;47.808;7.636;2023-12-14T12:20:36;5.40;;;3.75;;
21030;SDS011;61072;47.808;7.636;2023-12-14T12:23:03;4.53;;;2.95;;
21030;SDS011;61072;47.808;7.636;2023-12-14T12:25:30;4.88;;;3.08;;
21030;SDS011;61072;47.808;7.636;2023-12-14T12:27:58;3.00;;;2.65;;
21030;SDS011;61072;47.808;7.636;2023-12-14T12:30:25;4.22;;;2.70;;
21030;SDS011;61072;47.808;7.636;2023-12-14T12:32:52;8.20;;;3.38;;
21030;SDS011;61072;47.808;7.636;2023-12-14T12:35:19;4.45;;;2.90;;
21030;SDS011;61072;47.808;7.636;2023-12-14T12:37:47;3.30;;;2.33;;
21030;SDS011;61072;47.808;7.636;2023-12-14T12:40:20;3.63;;;2.53;;
21030;SDS011;61072;47.808;7.636;2023-12-14T12:42:47;5.22;;;1.85;;
21030;SDS011;61072;47.808;7.636;2023-12-14T12:45:15;4.10;;;2.47;;
21030;SDS011;61072;47.808;7.636;2023-12-14T12:47:43;3.10;;;2.38;;
21030;SDS011;61072;47.808;7.636;2023-12-14T12:50:11;3.40;;;2.80;;
21030;SDS011;61072;47.808;7.636;2023-12-14T12:52:39;4.55;;;3.03;;
21030;SDS011;61072;47.808;7.636;2023-12-14T12:55:07;5.07;;;2.30;;
21030;SDS011;61072;47.808;7.636;2023-12-14T12:57:35;2.05;;;1.77;;
21030;SDS011;61072;47.808;7.636;2023-12-14T13:00:03;2.35;;;1.90;;
21030;SDS011;61072;47.808;7.636;2023-12-14T13:02:31;1.60;;;1.48;;
21030;SDS011;61072;47.808;7.636;2023-12-14T13:04:57;3.08;;;2.20;;
21030;SDS011;61072;47.808;7.636;2023-12-14T13:07:24;2.78;;;1.98;;
21030;SDS011;61072;47.808;7.636;2023-12-14T13:09:51;3.75;;;2.00;;
21030;SDS011;61072;47.808;7.636;2023-12-14T13:12:18;1.92;;;1.60;;
21030;SDS011;61072;47.808;7.636;2023-12-14T13:14:44;2.35;;;1.90;;
21030;SDS011;61072;47.808;7.636;2023-12-14T13:17:11;1.95;;;1.50;;
21030;SDS011;61072;47.808;7.636;2023-12-14T13:19:38;3.55;;;1.70;;
21030;SDS011;61072;47.808;7.636;2023-12-14T13:22:05;3.90;;;1.73;;
21030;SDS011;61072;47.808;7.636;2023-12-14T13:24:32;2.90;;;1.85;;
21030;SDS011;61072;47.808;7.636;2023-12-14T13:26:58;2.88;;;1.80;;
21030;SDS011;61072;47.808;7.636;2023-12-14T13:29:25;2.72;;;1.95;;
21030;SDS011;61072;47.808;7.636;2023-12-14T13:31:52;2.95;;;1.85;;
21030;SDS011;61072;47.808;7.636;2023-12-14T13:34:19;2.30;;;1.48;;
21030;SDS011;61072;47.808;7.636;2023-12-14T13:36:45;2.00;;;1.40;;
21030;SDS011;61072;47.808;7.636;2023-12-14T13:39:13;1.83;;;1.30;;
21030;SDS011;61072;47.808;7.636;2023-12-14T13:41:40;1.95;;;1.48;;
21030;SDS011;61072;47.808;7.636;2023-12-14T13:44:15;2.47;;;1.90;;
21030;SDS011;61072;47.808;7.636;2023-12-14T13:46:42;3.72;;;2.20;;
21030;SDS011;61072;47.808;7.636;2023-12-14T13:49:09;4.10;;;2.58;;
21030;SDS011;61072;47.808;7.636;2023-12-14T13:51:36;4.30;;;2.53;;
21030;SDS011;61072;47.808;7.636;2023-12-14T13:54:03;4.93;;;2.50;;
21030;SDS011;61072;47.808;7.636;2023-12-14T13:56:30;3.38;;;2.10;;
21030;SDS011;61072;47.808;7.636;2023-12-14T13:58:57;3.30;;;2.20;;
21030;SDS011;61072;47.808;7.636;2023-12-14T14:01:24;3.28;;;2.08;;
21030;SDS011;61072;47.808;7.636;2023-12-14T14:03:51;2.67;;;1.90;;
21030;SDS011;61072;47.808;7.636;2023-12-14T14:06:18;4.00;;;2.00;;
21030;SDS011;61072;47.808;7.636;2023-12-14T14:08:47;2.33;;;1.80;;
21030;SDS011;61072;47.808;7.636;2023-12-14T14:11:13;2.45;;;1.88;;
21030;SDS011;61072;47.808;7.636;2023-12-14T14:13:40;2.67;;;2.00;;
21030;SDS011;61072;47.808;7.636;2023-12-14T14:16:07;2.67;;;1.83;;
21030;SDS011;61072;47.808;7.636;2023-12-14T14:18:34;3.13;;;1.52;;
21030;SDS011;61072;47.808;7.636;2023-12-14T14:21:01;2.90;;;1.63;;
21030;SDS011;61072;47.808;7.636;2023-12-14T14:23:28;3.60;;;1.77;;
21030;SDS011;61072;47.808;7.636;2023-12-14T14:25:57;3.97;;;1.58;;
21030;SDS011;61072;47.808;7.636;2023-12-14T14:28:24;5.53;;;2.10;;
21030;SDS011;61072;47.808;7.636;2023-12-14T14:30:51;3.25;;;2.33;;
21030;SDS011;61072;47.808;7.636;2023-12-14T14:33:18;3.72;;;2.50;;
21030;SDS011;61072;47.808;7.636;2023-12-14T14:35:47;3.83;;;2.60;;
21030;SDS011;61072;47.808;7.636;2023-12-14T14:38:14;3.40;;;2.80;;
21030;SDS011;61072;47.808;7.636;2023-12-14T14:40:41;3.97;;;2.42;;
21030;SDS011;61072;47.808;7.636;2023-12-14T14:43:09;3.10;;;1.50;;
21030;SDS011;61072;47.808;7.636;2023-12-14T14:45:36;3.30;;;1.77;;
21030;SDS011;61072;47.808;7.636;2023-12-14T14:48:06;1.63;;;1.50;;
21030;SDS011;61072;47.808;7.636;2023-12-14T14:50:35;1.67;;;1.33;;
21030;SDS011;61072;47.808;7.636;2023-12-14T14:53:02;1.50;;;1.30;;
21030;SDS011;61072;47.808;7.636;2023-12-14T14:55:29;1.13;;;1.00;;
21030;SDS011;61072;47.808;7.636;2023-12-14T14:57:56;2.72;;;2.00;;
21030;SDS011;61072;47.808;7.636;2023-12-14T15:00:23;3.13;;;2.83;;
21030;SDS011;61072;47.808;7.636;2023-12-14T15:02:51;3.00;;;2.70;;